sensor_id;sensor_type;location;lat;lon;timestamp;P1;durP1;ratioP1;P2;durP2;ratioP2
7645;SDS011;3864;48.180;14.178;2023-07-16T00:01:54;9.75;;;5.80;;
7645;SDS011;3864;48.180;14.178;2023-07-16T00:04:21;7.03;;;5.20;;
7645;SDS011;3864;48.180;14.178;2023-07-16T00:06:50;6.43;;;5.38;;
7645;SDS011;3864;48.180;14.178;2023-07-16T00:09:17;6.55;;;5.30;;
7645;SDS011;3864;48.180;14.178;2023-07-16T00:11:45;9.80;;;5.22;;
7645;SDS011;3864;48.180;14.178;2023-07-16T00:14:12;7.00;;;5.45;;
7645;SDS011;3864;48.180;14.178;2023-07-16T00:16:39;7.70;;;5.93;;
7645;SDS011;3864;48.180;14.178;2023-07-16T00:19:06;8.27;;;5.90;;
7645;SDS011;3864;48.180;14.178;2023-07-16T00:21:36;8.07;;;7.22;;
7645;SDS011;3864;48.180;14.178;2023-07-16T00:24:05;9.55;;;7.05;;
7645;SDS011;3864;48.180;14.178;2023-07-16T00:26:33;8.73;;;6.28;;
7645;SDS011;3864;48.180;14.178;2023-07-16T00:29:00;6.65;;;5.60;;
7645;SDS011;3864;48.180;14.178;2023-07-16T00:31:27;7.60;;;5.53;;
7645;SDS011;3864;48.180;14.178;2023-07-16T00:33:54;7.55;;;5.45;;
7645;SDS011;3864;48.180;14.178;2023-07-16T00:36:22;7.25;;;5.13;;
7645;SDS011;3864;48.180;14.178;2023-07-16T00:38:49;6.32;;;5.32;;
7645;SDS011;3864;48.180;14.178;2023-07-16T00:41:18;8.50;;;5.82;;
7645;SDS011;3864;48.180;14.178;2023-07-16T00:43:45;6.97;;;5.85;;
7645;SDS011;3864;48.180;14.178;2023-07-16T00:46:12;7.10;;;5.10;;
7645;SDS011;3864;48.180;14.178;2023-07-16T00:48:40;8.10;;;6.10;;
7645;SDS011;3864;48.180;14.178;2023-07-16T00:51:08;6.60;;;5.38;;
7645;SDS011;3864;48.180;14.178;2023-07-16T00:53:36;8.15;;;5.90;;
7645;SDS011;3864;48.180;14.178;2023-07-16T00:56:03;7.20;;;5.70;;
7645;SDS011;3864;48.180;14.178;2023-07-16T00:58:32;7.00;;;6.10;;
7645;SDS011;3864;48.180;14.178;2023-07-16T01:00:59;6.43;;;5.20;;
7645;SDS011;3864;48.180;14.178;2023-07-16T01:03:26;6.80;;;5.68;;
7645;SDS011;3864;48.180;14.178;2023-07-16T01:05:55;7.03;;;5.38;;
7645;SDS011;3864;48.180;14.178;2023-07-16T01:08:29;7.43;;;5.18;;
7645;SDS011;3864;48.180;14.178;2023-07-16T01:10:59;7.55;;;5.47;;
7645;SDS011;3864;48.180;14.178;2023-07-16T01:13:27;8.23;;;5.75;;
7645;SDS011;3864;48.180;14.178;2023-07-16T01:15:56;7.18;;;5.57;;
7645;SDS011;3864;48.180;14.178;2023-07-16T01:18:24;7.55;;;5.57;;
7645;SDS011;3864;48.180;14.178;2023-07-16T01:20:51;7.43;;;5.13;;
7645;SDS011;3864;48.180;14.178;2023-07-16T01:23:26;8.05;;;6.15;;
7645;SDS011;3864;48.180;14.178;2023-07-16T01:26:08;8.85;;;5.30;;
7645;SDS011;3864;48.180;14.178;2023-07-16T01:28:53;7.72;;;5.72;;
7645;SDS011;3864;48.180;14.178;2023-07-16T01:31:45;8.13;;;5.80;;
7645;SDS011;3864;48.180;14.178;2023-07-16T01:34:16;6.63;;;5.45;;
7645;SDS011;3864;48.180;14.178;2023-07-16T01:36:44;5.65;;;4.97;;
7645;SDS011;3864;48.180;14.178;2023-07-16T01:39:12;6.43;;;5.55;;
7645;SDS011;3864;48.180;14.178;2023-07-16T01:41:40;6.72;;;5.80;;
7645;SDS011;3864;48.180;14.178;2023-07-16T01:44:08;6.68;;;5.75;;
7645;SDS011;3864;48.180;14.178;2023-07-16T01:46:37;6.60;;;5.85;;
7645;SDS011;3864;48.180;14.178;2023-07-16T01:49:04;7.20;;;5.70;;
7645;SDS011;3864;48.180;14.178;2023-07-16T01:51:31;6.68;;;5.80;;
7645;SDS011;3864;48.180;14.178;2023-07-16T01:53:59;7.78;;;5.88;;
7645;SDS011;3864;48.180;14.178;2023-07-16T01:56:26;7.07;;;5.57;;
7645;SDS011;3864;48.180;14.178;2023-07-16T01:58:53;6.45;;;5.20;;
7645;SDS011;3864;48.180;14.178;2023-07-16T02:01:20;6.65;;;5.95;;
7645;SDS011;3864;48.180;14.178;2023-07-16T02:03:49;8.85;;;5.70;;
7645;SDS011;3864;48.180;14.178;2023-07-16T02:06:17;7.10;;;5.75;;
7645;SDS011;3864;48.180;14.178;2023-07-16T02:08:44;7.43;;;6.63;;
7645;SDS011;3864;48.180;14.178;2023-07-16T02:11:11;8.10;;;6.68;;
7645;SDS011;3864;48.180;14.178;2023-07-16T02:13:39;7.85;;;5.93;;
7645;SDS011;3864;48.180;14.178;2023-07-16T02:16:06;9.15;;;6.72;;
7645;SDS011;3864;48.180;14.178;2023-07-16T02:18:33;9.32;;;7.70;;
7645;SDS011;3864;48.180;14.178;2023-07-16T02:21:02;9.18;;;6.70;;
7645;SDS011;3864;48.180;14.178;2023-07-16T02:23:29;8.80;;;6.97;;
7645;SDS011;3864;48.180;14.178;2023-07-16T02:25:56;8.98;;;7.28;;
7645;SDS011;3864;48.180;14.178;2023-07-16T02:28:24;7.88;;;6.07;;
7645;SDS011;3864;48.180;14.178;2023-07-16T02:30:51;7.68;;;6.28;;
7645;SDS011;3864;48.180;14.178;2023-07-16T02:33:18;11.57;;;6.32;;
7645;SDS011;3864;48.180;14.178;2023-07-16T02:35:46;7.97;;;6.65;;
7645;SDS011;3864;48.180;14.178;2023-07-16T02:38:15;7.65;;;6.85;;
7645;SDS011;3864;48.180;14.178;2023-07-16T02:40:43;7.38;;;5.53;;
7645;SDS011;3864;48.180;14.178;2023-07-16T02:43:10;6.75;;;6.05;;
7645;SDS011;3864;48.180;14.178;2023-07-16T02:45:38;9.02;;;6.35;;
7645;SDS011;3864;48.180;14.178;2023-07-16T02:48:06;6.72;;;6.03;;
7645;SDS011;3864;48.180;14.178;2023-07-16T02:50:33;9.40;;;6.68;;
7645;SDS011;3864;48.180;14.178;2023-07-16T02:53:03;6.38;;;5.65;;
7645;SDS011;3864;48.180;14.178;2023-07-16T02:55:31;9.18;;;5.60;;
7645;SDS011;3864;48.180;14.178;2023-07-16T02:57:59;6.80;;;5.20;;
7645;SDS011;3864;48.180;14.178;2023-07-16T03:00:29;5.70;;;4.90;;
7645;SDS011;3864;48.180;14.178;2023-07-16T03:02:57;6.05;;;5.45;;
7645;SDS011;3864;48.180;14.178;2023-07-16T03:05:25;7.03;;;4.88;;
7645;SDS011;3864;48.180;14.178;2023-07-16T03:07:52;5.70;;;4.57;;
7645;SDS011;3864;48.180;14.178;2023-07-16T03:10:20;8.70;;;5.18;;
7645;SDS011;3864;48.180;14.178;2023-07-16T03:12:49;10.10;;;5.07;;
7645;SDS011;3864;48.180;14.178;2023-07-16T03:15:16;7.68;;;4.38;;
7645;SDS011;3864;48.180;14.178;2023-07-16T03:17:43;7.05;;;4.40;;
7645;SDS011;3864;48.180;14.178;2023-07-16T03:20:11;6.75;;;4.13;;
7645;SDS011;3864;48.180;14.178;2023-07-16T03:22:39;6.10;;;4.28;;
7645;SDS011;3864;48.180;14.178;2023-07-16T03:25:06;6.53;;;3.95;;
7645;SDS011;3864;48.180;14.178;2023-07-16T03:27:34;6.03;;;4.43;;
7645;SDS011;3864;48.180;14.178;2023-07-16T03:30:03;5.65;;;3.45;;
7645;SDS011;3864;48.180;14.178;2023-07-16T03:32:31;5.75;;;3.75;;
7645;SDS011;3864;48.180;14.178;2023-07-16T03:34:58;5.13;;;3.60;;
7645;SDS011;3864;48.180;14.178;2023-07-16T03:37:25;5.68;;;3.40;;
7645;SDS011;3864;48.180;14.178;2023-07-16T03:39:53;4.40;;;3.00;;
7645;SDS011;3864;48.180;14.178;2023-07-16T03:42:20;5.57;;;3.20;;
7645;SDS011;3864;48.180;14.178;2023-07-16T03:44:48;6.40;;;3.25;;
7645;SDS011;3864;48.180;14.178;2023-07-16T03:47:17;6.93;;;3.33;;
7645;SDS011;3864;48.180;14.178;2023-07-16T03:49:44;6.20;;;3.20;;
7645;SDS011;3864;48.180;14.178;2023-07-16T03:52:12;4.10;;;3.13;;
7645;SDS011;3864;48.180;14.178;2023-07-16T03:54:39;6.53;;;3.17;;
7645;SDS011;3864;48.180;14.178;2023-07-16T03:57:07;4.05;;;2.90;;
7645;SDS011;3864;48.180;14.178;2023-07-16T03:59:34;3.60;;;2.70;;
7645;SDS011;3864;48.180;14.178;2023-07-16T04:02:01;4.07;;;2.83;;
7645;SDS011;3864;48.180;14.178;2023-07-16T04:04:30;3.92;;;2.95;;
7645;SDS011;3864;48.180;14.178;2023-07-16T04:06:58;3.67;;;2.70;;
7645;SDS011;3864;48.180;14.178;2023-07-16T04:09:25;6.18;;;2.88;;
7645;SDS011;3864;48.180;14.178;2023-07-16T04:11:53;5.93;;;2.80;;
7645;SDS011;3864;48.180;14.178;2023-07-16T04:14:20;4.20;;;2.83;;
7645;SDS011;3864;48.180;14.178;2023-07-16T04:16:47;5.22;;;2.80;;
7645;SDS011;3864;48.180;14.178;2023-07-16T04:19:15;5.70;;;3.03;;
7645;SDS011;3864;48.180;14.178;2023-07-16T04:21:44;3.35;;;2.53;;
7645;SDS011;3864;48.180;14.178;2023-07-16T04:24:11;4.25;;;2.70;;
7645;SDS011;3864;48.180;14.178;2023-07-16T04:26:38;4.22;;;2.80;;
7645;SDS011;3864;48.180;14.178;2023-07-16T04:29:06;6.32;;;3.00;;
7645;SDS011;3864;48.180;14.178;2023-07-16T04:31:33;5.03;;;2.53;;
7645;SDS011;3864;48.180;14.178;2023-07-16T04:34:00;3.67;;;2.80;;
7645;SDS011;3864;48.180;14.178;2023-07-16T04:36:28;5.28;;;3.10;;
7645;SDS011;3864;48.180;14.178;2023-07-16T04:38:57;5.38;;;2.70;;
7645;SDS011;3864;48.180;14.178;2023-07-16T04:41:24;6.28;;;3.40;;
7645;SDS011;3864;48.180;14.178;2023-07-16T04:43:51;4.82;;;2.80;;
7645;SDS011;3864;48.180;14.178;2023-07-16T04:46:18;3.45;;;2.75;;
7645;SDS011;3864;48.180;14.178;2023-07-16T04:48:46;3.75;;;2.92;;
7645;SDS011;3864;48.180;14.178;2023-07-16T04:51:13;4.47;;;3.13;;
7645;SDS011;3864;48.180;14.178;2023-07-16T04:53:41;4.20;;;2.92;;
7645;SDS011;3864;48.180;14.178;2023-07-16T04:56:12;3.70;;;2.53;;
7645;SDS011;3864;48.180;14.178;2023-07-16T04:58:41;4.03;;;2.80;;
7645;SDS011;3864;48.180;14.178;2023-07-16T05:01:09;3.83;;;2.95;;
7645;SDS011;3864;48.180;14.178;2023-07-16T05:03:36;5.20;;;2.88;;
7645;SDS011;3864;48.180;14.178;2023-07-16T05:06:04;3.47;;;2.60;;
7645;SDS011;3864;48.180;14.178;2023-07-16T05:08:31;4.32;;;2.95;;
7645;SDS011;3864;48.180;14.178;2023-07-16T05:10:59;3.75;;;2.67;;
7645;SDS011;3864;48.180;14.178;2023-07-16T05:13:29;5.00;;;3.75;;
7645;SDS011;3864;48.180;14.178;2023-07-16T05:15:56;4.20;;;2.70;;
7645;SDS011;3864;48.180;14.178;2023-07-16T05:18:23;6.50;;;2.95;;
7645;SDS011;3864;48.180;14.178;2023-07-16T05:20:51;3.90;;;2.85;;
7645;SDS011;3864;48.180;14.178;2023-07-16T05:23:18;3.42;;;2.42;;
7645;SDS011;3864;48.180;14.178;2023-07-16T05:25:46;5.07;;;2.75;;
7645;SDS011;3864;48.180;14.178;2023-07-16T05:28:14;4.82;;;3.17;;
7645;SDS011;3864;48.180;14.178;2023-07-16T05:30:42;6.10;;;2.90;;
7645;SDS011;3864;48.180;14.178;2023-07-16T05:33:10;3.83;;;2.80;;
7645;SDS011;3864;48.180;14.178;2023-07-16T05:35:38;4.18;;;3.00;;
7645;SDS011;3864;48.180;14.178;2023-07-16T05:38:06;6.35;;;3.47;;
7645;SDS011;3864;48.180;14.178;2023-07-16T05:40:33;3.85;;;2.60;;
7645;SDS011;3864;48.180;14.178;2023-07-16T05:43:00;4.68;;;2.63;;
7645;SDS011;3864;48.180;14.178;2023-07-16T05:45:28;4.30;;;2.47;;
7645;SDS011;3864;48.180;14.178;2023-07-16T05:47:56;3.35;;;2.72;;
7645;SDS011;3864;48.180;14.178;2023-07-16T05:50:23;3.58;;;2.70;;
7645;SDS011;3864;48.180;14.178;2023-07-16T05:52:51;5.50;;;2.70;;
7645;SDS011;3864;48.180;14.178;2023-07-16T05:55:18;4.85;;;2.67;;
7645;SDS011;3864;48.180;14.178;2023-07-16T05:57:45;4.93;;;2.70;;
7645;SDS011;3864;48.180;14.178;2023-07-16T06:00:13;3.83;;;2.85;;
7645;SDS011;3864;48.180;14.178;2023-07-16T06:02:40;4.57;;;2.88;;
7645;SDS011;3864;48.180;14.178;2023-07-16T06:05:09;3.85;;;2.50;;
7645;SDS011;3864;48.180;14.178;2023-07-16T06:07:37;3.60;;;2.55;;
7645;SDS011;3864;48.180;14.178;2023-07-16T06:10:05;4.15;;;2.90;;
7645;SDS011;3864;48.180;14.178;2023-07-16T06:12:33;3.42;;;2.70;;
7645;SDS011;3864;48.180;14.178;2023-07-16T06:15:00;3.72;;;2.42;;
7645;SDS011;3864;48.180;14.178;2023-07-16T06:17:27;3.90;;;2.60;;
7645;SDS011;3864;48.180;14.178;2023-07-16T06:19:55;5.00;;;2.45;;
7645;SDS011;3864;48.180;14.178;2023-07-16T06:22:24;4.93;;;2.80;;
7645;SDS011;3864;48.180;14.178;2023-07-16T06:24:51;3.75;;;2.45;;
7645;SDS011;3864;48.180;14.178;2023-07-16T06:27:19;5.00;;;3.00;;
7645;SDS011;3864;48.180;14.178;2023-07-16T06:29:46;3.55;;;2.63;;
7645;SDS011;3864;48.180;14.178;2023-07-16T06:32:13;3.30;;;2.47;;
7645;SDS011;3864;48.180;14.178;2023-07-16T06:34:41;4.75;;;2.70;;
7645;SDS011;3864;48.180;14.178;2023-07-16T06:37:08;3.17;;;2.67;;
7645;SDS011;3864;48.180;14.178;2023-07-16T06:39:37;4.15;;;2.50;;
7645;SDS011;3864;48.180;14.178;2023-07-16T06:42:04;3.35;;;2.53;;
7645;SDS011;3864;48.180;14.178;2023-07-16T06:44:32;4.00;;;2.40;;
7645;SDS011;3864;48.180;14.178;2023-07-16T06:46:59;3.33;;;2.60;;
7645;SDS011;3864;48.180;14.178;2023-07-16T06:49:26;3.53;;;2.67;;
7645;SDS011;3864;48.180;14.178;2023-07-16T06:51:54;3.95;;;2.40;;
7645;SDS011;3864;48.180;14.178;2023-07-16T06:54:21;2.83;;;2.08;;
7645;SDS011;3864;48.180;14.178;2023-07-16T06:56:50;2.85;;;2.17;;
7645;SDS011;3864;48.180;14.178;2023-07-16T06:59:17;3.42;;;2.25;;
7645;SDS011;3864;48.180;14.178;2023-07-16T07:01:44;3.03;;;2.20;;
7645;SDS011;3864;48.180;14.178;2023-07-16T07:04:12;4.57;;;2.60;;
7645;SDS011;3864;48.180;14.178;2023-07-16T07:06:39;3.17;;;2.40;;
7645;SDS011;3864;48.180;14.178;2023-07-16T07:09:06;3.85;;;2.70;;
7645;SDS011;3864;48.180;14.178;2023-07-16T07:11:34;4.72;;;2.30;;
7645;SDS011;3864;48.180;14.178;2023-07-16T07:14:02;3.33;;;2.22;;
7645;SDS011;3864;48.180;14.178;2023-07-16T07:16:30;3.67;;;2.63;;
7645;SDS011;3864;48.180;14.178;2023-07-16T07:18:57;4.05;;;2.60;;
7645;SDS011;3864;48.180;14.178;2023-07-16T07:21:25;4.88;;;2.60;;
7645;SDS011;3864;48.180;14.178;2023-07-16T07:23:52;3.03;;;2.30;;
7645;SDS011;3864;48.180;14.178;2023-07-16T07:26:19;3.97;;;2.67;;
7645;SDS011;3864;48.180;14.178;2023-07-16T07:28:46;4.88;;;2.67;;
7645;SDS011;3864;48.180;14.178;2023-07-16T07:31:15;3.63;;;2.53;;
7645;SDS011;3864;48.180;14.178;2023-07-16T07:33:43;4.30;;;2.67;;
7645;SDS011;3864;48.180;14.178;2023-07-16T07:36:10;3.63;;;2.55;;
7645;SDS011;3864;48.180;14.178;2023-07-16T07:38:37;4.95;;;2.50;;
7645;SDS011;3864;48.180;14.178;2023-07-16T07:41:05;3.80;;;2.33;;
7645;SDS011;3864;48.180;14.178;2023-07-16T07:43:32;6.60;;;2.90;;
7645;SDS011;3864;48.180;14.178;2023-07-16T07:45:59;4.57;;;2.58;;
7645;SDS011;3864;48.180;14.178;2023-07-16T07:48:28;3.35;;;2.35;;
7645;SDS011;3864;48.180;14.178;2023-07-16T07:50:55;4.03;;;2.72;;
7645;SDS011;3864;48.180;14.178;2023-07-16T07:53:22;3.70;;;2.20;;
7645;SDS011;3864;48.180;14.178;2023-07-16T07:55:50;3.30;;;2.20;;
7645;SDS011;3864;48.180;14.178;2023-07-16T07:58:17;3.13;;;2.42;;
7645;SDS011;3864;48.180;14.178;2023-07-16T08:00:44;3.92;;;2.35;;
7645;SDS011;3864;48.180;14.178;2023-07-16T08:03:12;3.63;;;2.67;;
7645;SDS011;3864;48.180;14.178;2023-07-16T08:05:41;3.58;;;2.30;;
7645;SDS011;3864;48.180;14.178;2023-07-16T08:08:08;3.25;;;2.40;;
7645;SDS011;3864;48.180;14.178;2023-07-16T08:10:35;2.60;;;2.10;;
7645;SDS011;3864;48.180;14.178;2023-07-16T08:13:03;2.97;;;2.13;;
7645;SDS011;3864;48.180;14.178;2023-07-16T08:15:30;3.10;;;2.33;;
7645;SDS011;3864;48.180;14.178;2023-07-16T08:17:57;4.70;;;2.60;;
7645;SDS011;3864;48.180;14.178;2023-07-16T08:20:25;4.78;;;2.63;;
7645;SDS011;3864;48.180;14.178;2023-07-16T08:22:55;4.53;;;2.50;;
7645;SDS011;3864;48.180;14.178;2023-07-16T08:25:23;4.22;;;2.70;;
7645;SDS011;3864;48.180;14.178;2023-07-16T08:27:51;3.25;;;2.17;;
7645;SDS011;3864;48.180;14.178;2023-07-16T08:30:18;3.67;;;2.65;;
7645;SDS011;3864;48.180;14.178;2023-07-16T08:32:46;3.60;;;2.58;;
7645;SDS011;3864;48.180;14.178;2023-07-16T08:35:13;4.28;;;2.90;;
7645;SDS011;3864;48.180;14.178;2023-07-16T08:37:42;3.25;;;2.35;;
7645;SDS011;3864;48.180;14.178;2023-07-16T08:40:12;3.47;;;2.35;;
7645;SDS011;3864;48.180;14.178;2023-07-16T08:42:40;3.40;;;2.60;;
7645;SDS011;3864;48.180;14.178;2023-07-16T08:45:10;3.33;;;2.70;;
7645;SDS011;3864;48.180;14.178;2023-07-16T08:47:38;3.22;;;2.45;;
7645;SDS011;3864;48.180;14.178;2023-07-16T08:50:06;4.50;;;2.47;;
7645;SDS011;3864;48.180;14.178;2023-07-16T08:52:34;3.45;;;2.40;;
7645;SDS011;3864;48.180;14.178;2023-07-16T08:55:01;2.95;;;2.30;;
7645;SDS011;3864;48.180;14.178;2023-07-16T08:57:30;3.03;;;2.10;;
7645;SDS011;3864;48.180;14.178;2023-07-16T08:59:58;3.70;;;2.30;;
7645;SDS011;3864;48.180;14.178;2023-07-16T09:02:26;3.47;;;2.10;;
7645;SDS011;3864;48.180;14.178;2023-07-16T09:04:54;3.13;;;2.10;;
7645;SDS011;3864;48.180;14.178;2023-07-16T09:07:22;3.00;;;1.90;;
7645;SDS011;3864;48.180;14.178;2023-07-16T09:09:54;2.70;;;1.95;;
7645;SDS011;3864;48.180;14.178;2023-07-16T09:12:24;3.70;;;2.20;;
7645;SDS011;3864;48.180;14.178;2023-07-16T09:14:54;3.65;;;2.08;;
7645;SDS011;3864;48.180;14.178;2023-07-16T09:17:21;2.80;;;2.00;;
7645;SDS011;3864;48.180;14.178;2023-07-16T09:19:49;2.92;;;2.28;;
7645;SDS011;3864;48.180;14.178;2023-07-16T09:22:17;3.58;;;2.10;;
7645;SDS011;3864;48.180;14.178;2023-07-16T09:24:45;2.47;;;1.95;;
7645;SDS011;3864;48.180;14.178;2023-07-16T09:27:13;2.53;;;2.03;;
7645;SDS011;3864;48.180;14.178;2023-07-16T09:29:40;3.47;;;2.10;;
7645;SDS011;3864;48.180;14.178;2023-07-16T09:32:09;2.75;;;2.00;;
7645;SDS011;3864;48.180;14.178;2023-07-16T09:34:36;2.67;;;2.13;;
7645;SDS011;3864;48.180;14.178;2023-07-16T09:37:04;2.75;;;2.15;;
7645;SDS011;3864;48.180;14.178;2023-07-16T09:39:32;2.58;;;2.00;;
7645;SDS011;3864;48.180;14.178;2023-07-16T09:42:00;2.80;;;2.17;;
7645;SDS011;3864;48.180;14.178;2023-07-16T09:44:29;2.65;;;1.88;;
7645;SDS011;3864;48.180;14.178;2023-07-16T09:46:57;2.70;;;2.00;;
7645;SDS011;3864;48.180;14.178;2023-07-16T09:49:26;3.28;;;2.30;;
7645;SDS011;3864;48.180;14.178;2023-07-16T09:51:55;3.17;;;2.40;;
7645;SDS011;3864;48.180;14.178;2023-07-16T09:54:24;2.95;;;2.13;;
7645;SDS011;3864;48.180;14.178;2023-07-16T09:56:54;2.95;;;2.15;;
7645;SDS011;3864;48.180;14.178;2023-07-16T09:59:24;3.60;;;2.55;;
7645;SDS011;3864;48.180;14.178;2023-07-16T10:01:54;2.92;;;2.28;;
7645;SDS011;3864;48.180;14.178;2023-07-16T10:04:22;2.90;;;2.20;;
7645;SDS011;3864;48.180;14.178;2023-07-16T10:06:52;3.78;;;2.85;;
7645;SDS011;3864;48.180;14.178;2023-07-16T10:09:36;2.95;;;2.30;;
7645;SDS011;3864;48.180;14.178;2023-07-16T10:12:12;3.88;;;2.42;;
7645;SDS011;3864;48.180;14.178;2023-07-16T10:14:41;2.80;;;2.22;;
7645;SDS011;3864;48.180;14.178;2023-07-16T10:17:13;2.55;;;2.00;;
7645;SDS011;3864;48.180;14.178;2023-07-16T10:19:50;3.33;;;2.20;;
7645;SDS011;3864;48.180;14.178;2023-07-16T10:25:21;2.70;;;2.10;;
7645;SDS011;3864;48.180;14.178;2023-07-16T10:27:50;2.50;;;1.95;;
7645;SDS011;3864;48.180;14.178;2023-07-16T10:30:19;3.22;;;2.10;;
7645;SDS011;3864;48.180;14.178;2023-07-16T10:32:46;3.78;;;2.30;;
7645;SDS011;3864;48.180;14.178;2023-07-16T10:35:14;2.60;;;1.98;;
7645;SDS011;3864;48.180;14.178;2023-07-16T10:37:41;2.72;;;1.90;;
7645;SDS011;3864;48.180;14.178;2023-07-16T10:40:12;2.92;;;2.08;;
7645;SDS011;3864;48.180;14.178;2023-07-16T10:42:40;3.35;;;2.00;;
7645;SDS011;3864;48.180;14.178;2023-07-16T10:45:09;3.00;;;2.08;;
7645;SDS011;3864;48.180;14.178;2023-07-16T10:47:38;2.90;;;1.95;;
7645;SDS011;3864;48.180;14.178;2023-07-16T10:50:07;2.70;;;2.15;;
7645;SDS011;3864;48.180;14.178;2023-07-16T10:52:35;2.95;;;2.17;;
7645;SDS011;3864;48.180;14.178;2023-07-16T10:55:04;2.88;;;2.20;;
7645;SDS011;3864;48.180;14.178;2023-07-16T10:57:33;3.72;;;2.10;;
7645;SDS011;3864;48.180;14.178;2023-07-16T11:00:02;3.45;;;2.28;;
7645;SDS011;3864;48.180;14.178;2023-07-16T11:02:30;3.17;;;2.20;;
7645;SDS011;3864;48.180;14.178;2023-07-16T11:04:57;3.03;;;2.42;;
7645;SDS011;3864;48.180;14.178;2023-07-16T11:07:27;2.95;;;2.10;;
7645;SDS011;3864;48.180;14.178;2023-07-16T11:09:55;2.75;;;2.05;;
7645;SDS011;3864;48.180;14.178;2023-07-16T11:12:23;3.47;;;1.90;;
7645;SDS011;3864;48.180;14.178;2023-07-16T11:14:53;3.00;;;2.20;;
7645;SDS011;3864;48.180;14.178;2023-07-16T11:17:22;3.10;;;2.13;;
7645;SDS011;3864;48.180;14.178;2023-07-16T11:19:50;3.28;;;2.20;;
7645;SDS011;3864;48.180;14.178;2023-07-16T11:22:18;2.80;;;2.20;;
7645;SDS011;3864;48.180;14.178;2023-07-16T11:24:46;3.78;;;2.15;;
7645;SDS011;3864;48.180;14.178;2023-07-16T11:27:15;2.70;;;2.00;;
7645;SDS011;3864;48.180;14.178;2023-07-16T11:29:46;3.20;;;2.00;;
7645;SDS011;3864;48.180;14.178;2023-07-16T11:32:25;4.00;;;2.45;;
7645;SDS011;3864;48.180;14.178;2023-07-16T11:34:53;2.88;;;2.00;;
7645;SDS011;3864;48.180;14.178;2023-07-16T11:37:21;2.70;;;2.20;;
7645;SDS011;3864;48.180;14.178;2023-07-16T11:39:50;2.95;;;2.50;;
7645;SDS011;3864;48.180;14.178;2023-07-16T11:42:24;3.13;;;2.28;;
7645;SDS011;3864;48.180;14.178;2023-07-16T11:44:55;2.83;;;2.10;;
7645;SDS011;3864;48.180;14.178;2023-07-16T11:47:25;3.00;;;2.20;;
7645;SDS011;3864;48.180;14.178;2023-07-16T11:49:52;2.97;;;2.10;;
7645;SDS011;3864;48.180;14.178;2023-07-16T11:52:20;3.00;;;2.17;;
7645;SDS011;3864;48.180;14.178;2023-07-16T11:54:50;6.43;;;2.38;;
7645;SDS011;3864;48.180;14.178;2023-07-16T11:57:18;3.90;;;2.40;;
7645;SDS011;3864;48.180;14.178;2023-07-16T11:59:45;2.97;;;2.28;;
7645;SDS011;3864;48.180;14.178;2023-07-16T12:02:13;2.95;;;2.25;;
7645;SDS011;3864;48.180;14.178;2023-07-16T12:04:41;3.72;;;2.60;;
7645;SDS011;3864;48.180;14.178;2023-07-16T12:07:09;3.80;;;2.47;;
7645;SDS011;3864;48.180;14.178;2023-07-16T12:09:36;3.47;;;2.30;;
7645;SDS011;3864;48.180;14.178;2023-07-16T12:12:04;2.97;;;2.20;;
7645;SDS011;3864;48.180;14.178;2023-07-16T12:14:32;3.53;;;2.40;;
7645;SDS011;3864;48.180;14.178;2023-07-16T12:16:59;4.07;;;2.50;;
7645;SDS011;3864;48.180;14.178;2023-07-16T12:19:27;3.92;;;2.20;;
7645;SDS011;3864;48.180;14.178;2023-07-16T12:21:56;3.40;;;2.30;;
7645;SDS011;3864;48.180;14.178;2023-07-16T12:24:25;2.95;;;2.38;;
7645;SDS011;3864;48.180;14.178;2023-07-16T12:26:52;2.97;;;2.25;;
7645;SDS011;3864;48.180;14.178;2023-07-16T12:29:19;3.08;;;2.20;;
7645;SDS011;3864;48.180;14.178;2023-07-16T12:31:47;2.90;;;2.30;;
7645;SDS011;3864;48.180;14.178;2023-07-16T12:34:14;3.50;;;2.08;;
7645;SDS011;3864;48.180;14.178;2023-07-16T12:36:41;3.08;;;2.25;;
7645;SDS011;3864;48.180;14.178;2023-07-16T12:39:10;2.88;;;2.13;;
7645;SDS011;3864;48.180;14.178;2023-07-16T12:41:37;3.75;;;2.40;;
7645;SDS011;3864;48.180;14.178;2023-07-16T12:44:04;3.45;;;2.20;;
7645;SDS011;3864;48.180;14.178;2023-07-16T12:46:32;3.58;;;3.10;;
7645;SDS011;3864;48.180;14.178;2023-07-16T12:48:59;2.75;;;2.30;;
7645;SDS011;3864;48.180;14.178;2023-07-16T12:51:26;3.40;;;2.40;;
7645;SDS011;3864;48.180;14.178;2023-07-16T12:53:53;3.60;;;2.25;;
7645;SDS011;3864;48.180;14.178;2023-07-16T12:56:22;3.13;;;2.35;;
7645;SDS011;3864;48.180;14.178;2023-07-16T12:58:49;3.42;;;2.30;;
7645;SDS011;3864;48.180;14.178;2023-07-16T13:01:17;3.70;;;2.30;;
7645;SDS011;3864;48.180;14.178;2023-07-16T13:03:44;4.68;;;2.40;;
7645;SDS011;3864;48.180;14.178;2023-07-16T13:06:11;2.80;;;2.35;;
7645;SDS011;3864;48.180;14.178;2023-07-16T13:08:39;3.38;;;2.47;;
7645;SDS011;3864;48.180;14.178;2023-07-16T13:11:06;3.75;;;2.50;;
7645;SDS011;3864;48.180;14.178;2023-07-16T13:13:35;2.90;;;2.20;;
7645;SDS011;3864;48.180;14.178;2023-07-16T13:16:03;4.03;;;2.30;;
7645;SDS011;3864;48.180;14.178;2023-07-16T13:18:30;2.97;;;2.38;;
7645;SDS011;3864;48.180;14.178;2023-07-16T13:20:58;4.20;;;2.55;;
7645;SDS011;3864;48.180;14.178;2023-07-16T13:23:25;2.83;;;2.20;;
7645;SDS011;3864;48.180;14.178;2023-07-16T13:25:52;3.90;;;2.63;;
7645;SDS011;3864;48.180;14.178;2023-07-16T13:28:21;3.50;;;2.55;;
7645;SDS011;3864;48.180;14.178;2023-07-16T13:30:50;3.20;;;2.40;;
7645;SDS011;3864;48.180;14.178;2023-07-16T13:33:18;3.15;;;2.58;;
7645;SDS011;3864;48.180;14.178;2023-07-16T13:35:45;3.28;;;2.40;;
7645;SDS011;3864;48.180;14.178;2023-07-16T13:38:12;3.33;;;2.40;;
7645;SDS011;3864;48.180;14.178;2023-07-16T13:40:39;6.10;;;2.25;;
7645;SDS011;3864;48.180;14.178;2023-07-16T13:43:07;3.67;;;2.70;;
7645;SDS011;3864;48.180;14.178;2023-07-16T13:45:34;3.47;;;2.30;;
7645;SDS011;3864;48.180;14.178;2023-07-16T13:48:03;2.80;;;2.10;;
7645;SDS011;3864;48.180;14.178;2023-07-16T13:50:30;2.83;;;2.28;;
7645;SDS011;3864;48.180;14.178;2023-07-16T13:52:58;3.80;;;2.30;;
7645;SDS011;3864;48.180;14.178;2023-07-16T13:55:26;3.63;;;2.30;;
7645;SDS011;3864;48.180;14.178;2023-07-16T13:57:54;4.25;;;2.60;;
7645;SDS011;3864;48.180;14.178;2023-07-16T14:00:21;3.10;;;2.45;;
7645;SDS011;3864;48.180;14.178;2023-07-16T14:02:49;3.00;;;2.38;;
7645;SDS011;3864;48.180;14.178;2023-07-16T14:05:18;3.35;;;2.40;;
7645;SDS011;3864;48.180;14.178;2023-07-16T14:07:46;4.55;;;2.42;;
7645;SDS011;3864;48.180;14.178;2023-07-16T14:10:14;5.07;;;2.65;;
7645;SDS011;3864;48.180;14.178;2023-07-16T14:12:42;3.40;;;2.13;;
7645;SDS011;3864;48.180;14.178;2023-07-16T14:15:09;3.60;;;2.55;;
7645;SDS011;3864;48.180;14.178;2023-07-16T14:17:36;4.70;;;2.40;;
7645;SDS011;3864;48.180;14.178;2023-07-16T14:20:04;3.25;;;2.58;;
7645;SDS011;3864;48.180;14.178;2023-07-16T14:22:34;2.85;;;2.25;;
7645;SDS011;3864;48.180;14.178;2023-07-16T14:25:01;3.35;;;2.28;;
7645;SDS011;3864;48.180;14.178;2023-07-16T14:27:29;3.03;;;2.53;;
7645;SDS011;3864;48.180;14.178;2023-07-16T14:29:57;2.92;;;2.17;;
7645;SDS011;3864;48.180;14.178;2023-07-16T14:32:25;3.63;;;2.47;;
7645;SDS011;3864;48.180;14.178;2023-07-16T14:34:52;3.30;;;2.22;;
7645;SDS011;3864;48.180;14.178;2023-07-16T14:37:19;3.78;;;2.47;;
7645;SDS011;3864;48.180;14.178;2023-07-16T14:39:48;4.38;;;2.47;;
7645;SDS011;3864;48.180;14.178;2023-07-16T14:42:16;3.65;;;2.78;;
7645;SDS011;3864;48.180;14.178;2023-07-16T14:44:43;3.70;;;2.50;;
7645;SDS011;3864;48.180;14.178;2023-07-16T14:47:10;4.75;;;2.50;;
7645;SDS011;3864;48.180;14.178;2023-07-16T14:49:38;4.03;;;2.50;;
7645;SDS011;3864;48.180;14.178;2023-07-16T14:52:05;4.18;;;2.35;;
7645;SDS011;3864;48.180;14.178;2023-07-16T14:54:33;3.30;;;2.50;;
7645;SDS011;3864;48.180;14.178;2023-07-16T14:57:03;2.83;;;2.10;;
7645;SDS011;3864;48.180;14.178;2023-07-16T14:59:30;4.78;;;2.72;;
7645;SDS011;3864;48.180;14.178;2023-07-16T15:01:59;4.93;;;2.72;;
7645;SDS011;3864;48.180;14.178;2023-07-16T15:04:26;5.80;;;2.90;;
7645;SDS011;3864;48.180;14.178;2023-07-16T15:06:54;3.50;;;2.70;;
7645;SDS011;3864;48.180;14.178;2023-07-16T15:09:21;4.05;;;2.35;;